createdAt,value
2018-11-21T00:00:09.352Z,1508
2018-11-21T00:01:09.114Z,1508
2018-11-21T00:02:09.046Z,1508
2018-11-21T00:03:09.167Z,1508
2018-11-21T00:04:09.121Z,1508
2018-11-21T00:05:09.121Z,1508
2018-11-21T00:06:10.390Z,1507
2018-11-21T00:07:09.055Z,1507
2018-11-21T00:08:09.255Z,1507
2018-11-21T00:09:09.292Z,1507
2018-11-21T00:10:09.019Z,1507
2018-11-21T00:11:09.177Z,1507
2018-11-21T00:12:08.999Z,1507
2018-11-21T00:13:09.047Z,1507
2018-11-21T00:14:09.092Z,1507
2018-11-21T00:15:09.065Z,1507
2018-11-21T00:16:09.091Z,1507
2018-11-21T00:17:09.004Z,1507
2018-11-21T00:18:09.007Z,1507
2018-11-21T00:19:09.113Z,1507
2018-11-21T00:20:09.074Z,1507
2018-11-21T00:21:09.053Z,1507
2018-11-21T00:22:09.042Z,1507
2018-11-21T00:23:09.308Z,1507
2018-11-21T00:24:09.129Z,1507
2018-11-21T00:25:09.084Z,1507
2018-11-21T00:26:09.036Z,1507
2018-11-21T00:27:09.028Z,1507
2018-11-21T00:28:09.038Z,1507
2018-11-21T00:29:09.106Z,1507
2018-11-21T00:30:09.047Z,1507
2018-11-21T00:31:09.130Z,1507
2018-11-21T00:32:09.061Z,1507
2018-11-21T00:33:09.142Z,1507
2018-11-21T00:34:09.137Z,1507
2018-11-21T00:35:09.026Z,1507
2018-11-21T00:36:09.009Z,1507
2018-11-21T00:37:09.134Z,1507
2018-11-21T00:38:09.105Z,1507
2018-11-21T00:39:09.125Z,1507
2018-11-21T00:40:09.100Z,1507
2018-11-21T00:41:09.021Z,1507
2018-11-21T00:42:09.100Z,1507
2018-11-21T00:43:09.067Z,1507
2018-11-21T00:44:09.003Z,1507
2018-11-21T00:45:09.043Z,1507
2018-11-21T00:46:09.044Z,1507
2018-11-21T00:47:09.153Z,1507
2018-11-21T00:48:09.034Z,1507
2018-11-21T00:49:09.020Z,1507
2018-11-21T00:50:09.112Z,1507
2018-11-21T00:53:09.120Z,1508
2018-11-21T00:57:09.272Z,1508
2018-11-21T00:59:09.083Z,1508
2018-11-21T01:00:09.063Z,1508
2018-11-21T01:01:09.051Z,1507
2018-11-21T01:02:09.633Z,1507
2018-11-21T01:03:09.188Z,1507
2018-11-21T01:04:09.431Z,1507
2018-11-21T01:05:09.343Z,1507
2018-11-21T01:06:09.133Z,1507
2018-11-21T01:07:08.983Z,1507
2018-11-21T01:08:09.355Z,1507
2018-11-21T01:09:09.080Z,1507
2018-11-21T01:10:08.980Z,1507
2018-11-21T01:11:09.022Z,1507
2018-11-21T01:12:08.977Z,1507
2018-11-21T01:13:09.071Z,1507
2018-11-21T01:14:09.697Z,1507
2018-11-21T01:15:09.068Z,1507
2018-11-21T01:16:08.998Z,1507
2018-11-21T01:17:09.086Z,1507
2018-11-21T01:18:08.984Z,1507
2018-11-21T01:19:09.025Z,1507
2018-11-21T01:20:09.171Z,1507
2018-11-21T01:21:09.014Z,1507
2018-11-21T01:22:09.026Z,1507
2018-11-21T01:23:09.005Z,1507
2018-11-21T01:24:09.034Z,1507
2018-11-21T01:25:09.074Z,1507
2018-11-21T01:26:09.080Z,1507
2018-11-21T01:27:08.990Z,1507
2018-11-21T01:28:09.035Z,1507
2018-11-21T01:29:09.014Z,1507
2018-11-21T01:30:09.125Z,1507
2018-11-21T01:31:08.997Z,1507
2018-11-21T01:32:09.000Z,1507
2018-11-21T01:33:09.786Z,1507
2018-11-21T01:34:09.029Z,1507
2018-11-21T01:35:09.077Z,1507
2018-11-21T01:36:08.983Z,1507
2018-11-21T01:37:08.994Z,1507
2018-11-21T01:38:08.991Z,1507
2018-11-21T01:39:09.065Z,1507
2018-11-21T01:40:09.115Z,1507
2018-11-21T01:41:09.002Z,1507
2018-11-21T01:42:09.052Z,1507
2018-11-21T01:43:09.339Z,1507
2018-11-21T01:44:08.986Z,1507
2018-11-21T01:45:09.055Z,1508
2018-11-21T01:46:09.046Z,1508
2018-11-21T01:47:08.995Z,1508
2018-11-21T01:48:09.074Z,1508
2018-11-21T01:49:09.044Z,1508
2018-11-21T01:50:08.987Z,1508
2018-11-21T01:51:08.983Z,1508
2018-11-21T01:52:09.032Z,1508
2018-11-21T01:53:09.056Z,1508
2018-11-21T01:54:09.052Z,1508
2018-11-21T01:55:09.012Z,1507
2018-11-21T01:56:09.003Z,1507
2018-11-21T01:57:09.067Z,1507
2018-11-21T01:58:08.991Z,1507
2018-11-21T01:59:08.996Z,1507
2018-11-21T02:00:09.009Z,1507
2018-11-21T02:01:08.995Z,1507
2018-11-21T02:02:09.048Z,1507
2018-11-21T02:03:09.031Z,1507
2018-11-21T02:04:09.084Z,1507
2018-11-21T02:05:09.025Z,1507
2018-11-21T02:06:09.275Z,1507
2018-11-21T02:07:08.986Z,1507
2018-11-21T02:08:08.994Z,1507
2018-11-21T02:09:09.067Z,1507
2018-11-21T02:10:08.994Z,1507
2018-11-21T02:11:09.013Z,1507
2018-11-21T02:12:09.009Z,1507
2018-11-21T02:13:09.013Z,1507
2018-11-21T02:14:09.035Z,1507
2018-11-21T02:15:09.020Z,1507
2018-11-21T02:16:09.031Z,1507
2018-11-21T02:17:09.294Z,1507
2018-11-21T02:18:09.040Z,1507
2018-11-21T02:19:09.071Z,1507
2018-11-21T02:20:09.059Z,1507
2018-11-21T02:21:09.003Z,1507
2018-11-21T02:22:09.028Z,1507
2018-11-21T02:23:09.002Z,1507
2018-11-21T02:24:09.000Z,1507
2018-11-21T02:25:09.079Z,1507
2018-11-21T02:26:09.005Z,1507
2018-11-21T02:27:09.002Z,1507
2018-11-21T02:28:09.015Z,1507
2018-11-21T02:29:09.057Z,1507
2018-11-21T02:30:09.007Z,1507
2018-11-21T02:31:09.021Z,1507
2018-11-21T02:32:09.005Z,1507
2018-11-21T02:33:09.004Z,1507
2018-11-21T02:34:09.097Z,1507
2018-11-21T02:35:09.016Z,1507
2018-11-21T02:36:09.032Z,1507
2018-11-21T02:37:08.979Z,1507
2018-11-21T02:38:09.021Z,1507
2018-11-21T02:39:09.114Z,1507
2018-11-21T02:40:09.065Z,1507
2018-11-21T02:41:09.005Z,1507
2018-11-21T02:42:09.044Z,1507
2018-11-21T02:43:08.993Z,1507
2018-11-21T02:44:09.055Z,1507
2018-11-21T02:45:09.069Z,1507
2018-11-21T02:46:09.016Z,1507
2018-11-21T02:47:09.036Z,1507
2018-11-21T02:48:09.059Z,1507
2018-11-21T02:49:09.055Z,1507
2018-11-21T02:50:09.094Z,1507
2018-11-21T02:51:09.004Z,1507
2018-11-21T02:52:09.015Z,1507
2018-11-21T02:53:09.061Z,1507
2018-11-21T02:54:08.991Z,1507
2018-11-21T02:55:09.186Z,1507
2018-11-21T02:56:09.002Z,1507
2018-11-21T02:57:09.370Z,1507
2018-11-21T02:58:09.033Z,1507
2018-11-21T02:59:09.073Z,1507
2018-11-21T03:00:09.022Z,1507
2018-11-21T03:01:09.021Z,1507
2018-11-21T03:02:09.083Z,1507
2018-11-21T03:03:09.308Z,1507
2018-11-21T03:04:08.991Z,1507
2018-11-21T03:05:09.011Z,1507
2018-11-21T03:06:08.998Z,1507
2018-11-21T03:07:09.047Z,1507
2018-11-21T03:08:09.019Z,1507
2018-11-21T03:09:09.000Z,1507
2018-11-21T03:10:09.014Z,1507
2018-11-21T03:11:09.008Z,1507
2018-11-21T03:12:09.062Z,1507
2018-11-21T03:13:08.997Z,1507
2018-11-21T03:14:08.992Z,1507
2018-11-21T03:15:09.413Z,1507
2018-11-21T03:16:09.007Z,1507
2018-11-21T03:17:09.118Z,1507
2018-11-21T03:18:09.001Z,1507
2018-11-21T03:19:09.021Z,1507
2018-11-21T03:20:09.026Z,1507
2018-11-21T03:21:09.041Z,1507
2018-11-21T03:22:09.059Z,1507
2018-11-21T03:23:09.046Z,1507
2018-11-21T03:24:09.063Z,1507
2018-11-21T03:25:09.058Z,1507
2018-11-21T03:26:09.030Z,1507
2018-11-21T03:27:09.432Z,1507
2018-11-21T03:28:09.028Z,1507
2018-11-21T03:29:08.989Z,1507
2018-11-21T03:30:08.987Z,1507
2018-11-21T03:31:08.997Z,1507
2018-11-21T03:32:09.102Z,1507
2018-11-21T03:33:09.006Z,1507
2018-11-21T03:34:09.031Z,1507
2018-11-21T03:35:09.018Z,1507
2018-11-21T03:36:08.982Z,1507
2018-11-21T03:37:09.038Z,1507
2018-11-21T03:38:08.986Z,1507
2018-11-21T03:44:09.052Z,1507
2018-11-21T03:47:09.097Z,1507
2018-11-21T03:48:09.003Z,1507
2018-11-21T03:49:09.381Z,1507
2018-11-21T03:50:09.016Z,1507
2018-11-21T03:51:09.023Z,1507
2018-11-21T03:52:09.112Z,1507
2018-11-21T03:53:09.291Z,1507
2018-11-21T03:54:08.991Z,1507
2018-11-21T03:55:09.047Z,1507
2018-11-21T03:56:09.004Z,1507
2018-11-21T03:57:08.996Z,1507
2018-11-21T03:58:09.029Z,1507
2018-11-21T03:59:08.996Z,1507
2018-11-21T04:00:09.078Z,1507
2018-11-21T04:01:08.992Z,1507
2018-11-21T04:02:09.003Z,1507
2018-11-21T04:03:09.053Z,1507
2018-11-21T04:04:10.300Z,1507
2018-11-21T04:05:09.061Z,1507
2018-11-21T04:06:08.997Z,1507
2018-11-21T04:07:08.986Z,1507
2018-11-21T04:08:08.980Z,1507
2018-11-21T04:09:08.974Z,1507
2018-11-21T04:10:09.052Z,1507
2018-11-21T04:11:08.986Z,1507
2018-11-21T04:12:09.009Z,1507
2018-11-21T04:13:08.981Z,1507
2018-11-21T04:14:08.978Z,1507
2018-11-21T04:15:09.025Z,1507
2018-11-21T04:16:09.039Z,1507
2018-11-21T04:17:09.052Z,1507
2018-11-21T04:18:09.006Z,1507
2018-11-21T04:19:08.988Z,1507
2018-11-21T04:20:09.039Z,1507
2018-11-21T04:21:08.998Z,1507
2018-11-21T04:22:09.023Z,1507
2018-11-21T04:23:09.015Z,1507
2018-11-21T04:24:09.229Z,1507
2018-11-21T04:25:09.060Z,1507
2018-11-21T04:26:09.001Z,1507
2018-11-21T04:27:08.983Z,1507
2018-11-21T04:28:09.015Z,1507
2018-11-21T04:29:08.994Z,1507
2018-11-21T04:30:09.056Z,1507
2018-11-21T04:31:09.031Z,1507
2018-11-21T04:32:09.013Z,1507
2018-11-21T04:33:09.001Z,1507
2018-11-21T04:34:09.336Z,1507
2018-11-21T04:35:09.073Z,1507
2018-11-21T04:36:08.995Z,1507
2018-11-21T04:37:09.075Z,1507
2018-11-21T04:38:09.083Z,1507
2018-11-21T04:39:08.998Z,1507
2018-11-21T04:40:09.290Z,1507
2018-11-21T04:41:09.039Z,1507
2018-11-21T04:42:09.076Z,1507
2018-11-21T04:43:08.992Z,1507
2018-11-21T04:44:09.152Z,1507
2018-11-21T04:45:09.008Z,1507
2018-11-21T04:46:10.334Z,1507
2018-11-21T04:47:09.042Z,1507
2018-11-21T04:48:09.024Z,1507
2018-11-21T04:49:09.017Z,1507
2018-11-21T04:50:09.050Z,1507
2018-11-21T04:51:09.050Z,1507
2018-11-21T04:52:09.072Z,1507
2018-11-21T04:53:09.012Z,1507
2018-11-21T04:54:09.019Z,1507
2018-11-21T04:55:09.016Z,1507
2018-11-21T04:56:08.993Z,1507
2018-11-21T04:57:09.288Z,1507
2018-11-21T04:58:09.056Z,1507
2018-11-21T04:59:09.262Z,1507
2018-11-21T05:00:08.990Z,1507
2018-11-21T05:01:08.998Z,1507
2018-11-21T05:02:09.068Z,1507
2018-11-21T05:03:08.989Z,1507
2018-11-21T05:04:09.279Z,1507
2018-11-21T05:05:08.992Z,1507
2018-11-21T05:06:08.989Z,1507
2018-11-21T05:07:09.113Z,1507
2018-11-21T05:08:09.009Z,1507
2018-11-21T05:09:08.995Z,1507
2018-11-21T05:10:09.349Z,1507
2018-11-21T05:11:08.983Z,1507
2018-11-21T05:12:09.037Z,1507
2018-11-21T05:13:08.999Z,1507
2018-11-21T05:14:08.999Z,1507
2018-11-21T05:15:09.054Z,1507
2018-11-21T05:16:08.994Z,1507
2018-11-21T05:17:09.008Z,1507
2018-11-21T05:18:09.058Z,1507
2018-11-21T05:19:08.987Z,1507
2018-11-21T05:20:09.064Z,1507
2018-11-21T05:21:08.994Z,1507
2018-11-21T05:22:09.059Z,1507
2018-11-21T05:23:08.986Z,1507
2018-11-21T05:24:09.001Z,1507
2018-11-21T05:25:09.169Z,1507
2018-11-21T05:26:09.282Z,1507
2018-11-21T05:27:09.027Z,1507
2018-11-21T05:28:09.035Z,1507
2018-11-21T05:29:09.009Z,1507
2018-11-21T05:30:09.048Z,1507
2018-11-21T05:31:09.002Z,1507
2018-11-21T05:32:08.999Z,1507
2018-11-21T05:33:09.031Z,1507
2018-11-21T05:34:09.018Z,1507
2018-11-21T05:35:09.132Z,1507
2018-11-21T05:36:09.015Z,1507
2018-11-21T05:37:08.979Z,1507
2018-11-21T05:38:09.023Z,1507
2018-11-21T05:39:09.002Z,1507
2018-11-21T05:40:09.042Z,1507
2018-11-21T05:41:08.996Z,1507
2018-11-21T05:42:09.014Z,1507
2018-11-21T05:43:09.009Z,1507
2018-11-21T05:44:08.981Z,1507
2018-11-21T05:45:09.047Z,1507
2018-11-21T05:46:08.997Z,1507
2018-11-21T05:47:09.010Z,1507
2018-11-21T05:48:09.095Z,1507
2018-11-21T05:49:08.986Z,1507
2018-11-21T05:50:09.054Z,1507
2018-11-21T05:51:09.081Z,1507
2018-11-21T05:52:09.028Z,1507
2018-11-21T05:53:08.999Z,1507
2018-11-21T05:54:08.995Z,1507
2018-11-21T05:55:09.110Z,1507
2018-11-21T05:56:08.986Z,1507
2018-11-21T05:57:09.037Z,1507
2018-11-21T05:58:09.002Z,1507
2018-11-21T05:59:09.026Z,1507
2018-11-21T06:00:09.036Z,1507
2018-11-21T06:01:09.076Z,1507
2018-11-21T06:02:08.982Z,1507
2018-11-21T06:03:08.980Z,1507
2018-11-21T06:04:08.997Z,1508
2018-11-21T06:05:09.079Z,1508
2018-11-21T06:06:10.110Z,1508
2018-11-21T06:07:09.024Z,1508
2018-11-21T06:08:09.005Z,1508
2018-11-21T06:09:09.967Z,1508
2018-11-21T06:10:09.130Z,1508
2018-11-21T06:11:09.401Z,1508
2018-11-21T06:12:09.003Z,1508
2018-11-21T06:13:09.150Z,1508
2018-11-21T06:14:09.004Z,1508
2018-11-21T06:15:09.170Z,1508
2018-11-21T06:16:09.133Z,1508
2018-11-21T06:17:09.344Z,1508
2018-11-21T06:18:09.026Z,1508
2018-11-21T06:19:09.145Z,1508
2018-11-21T06:20:09.041Z,1508
2018-11-21T06:21:09.508Z,1508
2018-11-21T06:22:08.991Z,1508
2018-11-21T06:23:08.997Z,1508
2018-11-21T06:24:08.991Z,1508
2018-11-21T06:25:09.047Z,1508
2018-11-21T06:26:08.993Z,1508
2018-11-21T06:27:09.101Z,1508
2018-11-21T06:31:09.015Z,1508
2018-11-21T06:32:09.116Z,1508
2018-11-21T06:34:09.034Z,1508
2018-11-21T06:35:09.345Z,1508
2018-11-21T06:36:08.998Z,1508
2018-11-21T06:37:08.991Z,1508
2018-11-21T06:38:08.995Z,1508
2018-11-21T06:39:09.000Z,1508
2018-11-21T06:40:09.079Z,1508
2018-11-21T06:41:09.282Z,1508
2018-11-21T06:42:09.175Z,1508
2018-11-21T06:43:09.004Z,1508
2018-11-21T06:44:09.500Z,1508
2018-11-21T06:45:09.311Z,1508
2018-11-21T06:46:09.003Z,1509
2018-11-21T06:47:09.006Z,1509
2018-11-21T06:48:09.068Z,1509
2018-11-21T06:49:09.022Z,1509
2018-11-21T06:50:09.029Z,1509
2018-11-21T06:51:09.637Z,1509
2018-11-21T06:52:09.288Z,1509
2018-11-21T06:53:08.999Z,1509
2018-11-21T06:54:09.059Z,1509
2018-11-21T06:55:08.998Z,1509
2018-11-21T06:56:08.989Z,1509
2018-11-21T06:57:09.029Z,1509
2018-11-21T06:58:09.033Z,1509
2018-11-21T06:59:09.086Z,1509
2018-11-21T07:00:08.992Z,1509
2018-11-21T07:01:09.018Z,1509
2018-11-21T07:02:08.996Z,1509
2018-11-21T07:03:09.049Z,1509
2018-11-21T07:04:09.080Z,1509
2018-11-21T07:05:09.013Z,1509
2018-11-21T07:06:08.991Z,1509
2018-11-21T07:07:08.994Z,1509
2018-11-21T07:08:08.987Z,1509
2018-11-21T07:09:09.098Z,1509
2018-11-21T07:10:08.994Z,1509
2018-11-21T07:11:09.018Z,1509
2018-11-21T07:12:08.985Z,1509
2018-11-21T07:13:11.159Z,1509
2018-11-21T07:14:09.038Z,1509
2018-11-21T07:15:09.066Z,1509
2018-11-21T07:16:09.053Z,1509
2018-11-21T07:17:08.989Z,1510
2018-11-21T07:18:09.164Z,1510
2018-11-21T07:19:09.002Z,1510
2018-11-21T07:20:09.080Z,1510
2018-11-21T07:21:09.012Z,1510
2018-11-21T07:22:09.039Z,1510
2018-11-21T07:23:08.997Z,1510
2018-11-21T07:24:09.081Z,1510
2018-11-21T07:25:09.073Z,1510
2018-11-21T07:26:09.065Z,1510
2018-11-21T07:27:09.014Z,1510
2018-11-21T07:28:12.907Z,1510
2018-11-21T07:29:08.992Z,1510
2018-11-21T07:30:09.123Z,1510
2018-11-21T07:31:09.034Z,1510
2018-11-21T07:32:09.049Z,1509
2018-11-21T07:33:09.017Z,1509
2018-11-21T07:34:09.953Z,1509
2018-11-21T07:35:09.072Z,1509
2018-11-21T07:36:09.295Z,1509
2018-11-21T07:37:09.044Z,1509
2018-11-21T07:38:09.040Z,1509
2018-11-21T07:39:09.000Z,1509
2018-11-21T07:40:09.036Z,1509
2018-11-21T07:41:09.085Z,1509
2018-11-21T07:42:09.292Z,1509
2018-11-21T07:43:09.056Z,1509
2018-11-21T07:44:08.998Z,1509
2018-11-21T07:45:09.019Z,1509
2018-11-21T07:46:09.110Z,1509
2018-11-21T07:47:09.075Z,1509
2018-11-21T07:48:09.013Z,1509
2018-11-21T07:49:09.041Z,1509
2018-11-21T07:50:09.020Z,1509
2018-11-21T07:51:09.042Z,1509
2018-11-21T07:52:09.005Z,1509
2018-11-21T07:53:09.317Z,1509
2018-11-21T07:54:09.094Z,1509
2018-11-21T07:55:09.069Z,1509
2018-11-21T07:56:08.996Z,1509
2018-11-21T07:57:09.010Z,1509
2018-11-21T07:58:09.116Z,1509
2018-11-21T07:59:09.003Z,1510
2018-11-21T08:00:09.064Z,1510
2018-11-21T08:01:09.014Z,1510
2018-11-21T08:02:09.020Z,1510
2018-11-21T08:03:08.991Z,1510
2018-11-21T08:04:09.025Z,1510
2018-11-21T08:05:09.157Z,1509
2018-11-21T08:06:09.007Z,1510
2018-11-21T08:07:09.017Z,1510
2018-11-21T08:08:09.006Z,1510
2018-11-21T08:09:09.017Z,1509
2018-11-21T08:10:09.142Z,1509
2018-11-21T08:11:09.009Z,1509
2018-11-21T08:12:08.998Z,1509
2018-11-21T08:13:09.039Z,1509
2018-11-21T08:14:09.024Z,1509
2018-11-21T08:15:09.074Z,1509
2018-11-21T08:16:09.027Z,1509
2018-11-21T08:17:09.004Z,1510
2018-11-21T08:18:09.039Z,1510
2018-11-21T08:19:09.010Z,1510
2018-11-21T08:20:09.061Z,1510
2018-11-21T08:21:08.995Z,1510
2018-11-21T08:22:08.994Z,1510
2018-11-21T08:23:09.007Z,1510
2018-11-21T08:24:09.029Z,1510
2018-11-21T08:25:09.112Z,1510
2018-11-21T08:26:09.017Z,1510
2018-11-21T08:27:08.988Z,1509
2018-11-21T08:28:09.051Z,1509
2018-11-21T08:29:09.035Z,1509
2018-11-21T08:30:09.086Z,1509
2018-11-21T08:31:09.047Z,1509
2018-11-21T08:32:09.002Z,1509
2018-11-21T08:33:09.023Z,1509
2018-11-21T08:34:09.070Z,1509
2018-11-21T08:35:09.004Z,1510
2018-11-21T08:36:08.997Z,1510
2018-11-21T08:37:09.338Z,1510
2018-11-21T08:38:09.511Z,1510
2018-11-21T08:39:09.022Z,1510
2018-11-21T08:40:09.000Z,1510
2018-11-21T08:41:08.994Z,1510
2018-11-21T08:42:09.061Z,1510
2018-11-21T08:43:09.032Z,1510
2018-11-21T08:44:09.036Z,1510
2018-11-21T08:45:09.031Z,1510
2018-11-21T08:46:09.027Z,1510
2018-11-21T08:47:09.050Z,1510
2018-11-21T08:48:09.006Z,1510
2018-11-21T08:49:09.003Z,1510
2018-11-21T08:50:08.993Z,1510
2018-11-21T08:51:08.985Z,1510
2018-11-21T08:52:09.099Z,1510
2018-11-21T08:53:08.987Z,1510
2018-11-21T08:54:09.095Z,1510
2018-11-21T08:55:09.179Z,1510
2018-11-21T08:56:09.016Z,1510
2018-11-21T08:57:09.076Z,1510
2018-11-21T08:58:09.294Z,1510
2018-11-21T08:59:09.018Z,1510
2018-11-21T09:00:09.003Z,1510
2018-11-21T09:01:09.036Z,1510
2018-11-21T09:02:09.014Z,1510
2018-11-21T09:03:09.081Z,1510
2018-11-21T09:04:09.039Z,1510
2018-11-21T09:05:09.000Z,1510
2018-11-21T09:06:09.053Z,1510
2018-11-21T09:07:09.001Z,1510
2018-11-21T09:08:09.084Z,1510
2018-11-21T09:09:09.016Z,1510
2018-11-21T09:10:09.300Z,1510
2018-11-21T09:11:09.124Z,1510
2018-11-21T09:12:09.034Z,1510
2018-11-21T09:13:09.060Z,1510
2018-11-21T09:14:09.019Z,1510
2018-11-21T09:15:09.023Z,1510
2018-11-21T09:16:09.039Z,1510
2018-11-21T09:23:09.070Z,1510
2018-11-21T09:24:08.979Z,1510
2018-11-21T09:25:08.999Z,1510
2018-11-21T09:26:09.036Z,1510
2018-11-21T09:27:09.023Z,1510
2018-11-21T09:28:09.177Z,1510
2018-11-21T09:29:09.051Z,1510
2018-11-21T09:30:09.009Z,1510
2018-11-21T09:31:09.047Z,1510
2018-11-21T09:32:08.993Z,1510
2018-11-21T09:33:09.136Z,1510
2018-11-21T09:34:09.208Z,1510
2018-11-21T09:35:09.013Z,1510
2018-11-21T09:36:09.000Z,1510
2018-11-21T09:37:09.001Z,1510
2018-11-21T09:38:09.085Z,1510
2018-11-21T09:39:09.013Z,1510
2018-11-21T09:40:08.993Z,1510
2018-11-21T09:41:09.045Z,1509
2018-11-21T09:42:09.045Z,1509
2018-11-21T09:43:09.005Z,1509
2018-11-21T09:44:09.048Z,1509
2018-11-21T09:45:09.043Z,1509
2018-11-21T09:46:09.060Z,1509
2018-11-21T09:47:09.032Z,1509
2018-11-21T09:48:09.350Z,1509
2018-11-21T09:49:09.045Z,1509
2018-11-21T09:50:08.988Z,1509
2018-11-21T09:51:08.998Z,1509
2018-11-21T09:52:09.036Z,1509
2018-11-21T09:53:09.081Z,1509
2018-11-21T09:54:08.996Z,1509
2018-11-21T09:55:09.115Z,1509
2018-11-21T09:56:09.096Z,1509
2018-11-21T09:57:08.987Z,1509
2018-11-21T09:58:09.061Z,1509
2018-11-21T09:59:09.008Z,1509
2018-11-21T10:00:09.015Z,1510
2018-11-21T10:01:09.074Z,1510
2018-11-21T10:02:09.017Z,1510
2018-11-21T10:03:09.159Z,1510
2018-11-21T10:04:09.022Z,1510
2018-11-21T10:05:08.993Z,1510
2018-11-21T10:06:09.047Z,1510
2018-11-21T10:07:08.999Z,1510
2018-11-21T10:08:08.997Z,1510
2018-11-21T10:09:09.010Z,1510
2018-11-21T10:10:09.028Z,1510
2018-11-21T10:11:09.092Z,1510
2018-11-21T10:12:09.031Z,1510
2018-11-21T10:13:09.009Z,1510
2018-11-21T10:14:09.402Z,1511
2018-11-21T10:15:09.859Z,1512
2018-11-21T10:16:09.346Z,1512
2018-11-21T10:17:09.195Z,1512
2018-11-21T10:18:09.149Z,1512
2018-11-21T10:19:09.087Z,1512
2018-11-21T10:20:09.001Z,1512
2018-11-21T10:21:09.129Z,1512
2018-11-21T10:22:08.995Z,1512
2018-11-21T10:23:09.102Z,1512
2018-11-21T10:24:09.001Z,1512
2018-11-21T10:25:08.998Z,1512
2018-11-21T10:26:09.066Z,1512
2018-11-21T10:27:09.036Z,1512
2018-11-21T10:28:09.005Z,1512
2018-11-21T10:29:09.384Z,1512
2018-11-21T10:30:09.022Z,1512
2018-11-21T10:31:09.039Z,1512
2018-11-21T10:32:09.005Z,1512
2018-11-21T10:33:09.061Z,1512
2018-11-21T10:34:09.000Z,1512
2018-11-21T10:35:09.375Z,1512
2018-11-21T10:36:09.063Z,1512
2018-11-21T10:37:09.059Z,1512
2018-11-21T10:38:08.987Z,1512
2018-11-21T10:39:09.058Z,1512
2018-11-21T10:40:09.035Z,1512
2018-11-21T10:41:09.009Z,1512
2018-11-21T10:42:09.067Z,1512
2018-11-21T10:43:09.020Z,1513
2018-11-21T10:44:08.990Z,1513
2018-11-21T10:45:09.012Z,1512
2018-11-21T10:46:08.998Z,1512
2018-11-21T10:47:09.103Z,1512
2018-11-21T10:48:09.011Z,1512
2018-11-21T10:49:09.017Z,1513
2018-11-21T10:50:08.995Z,1513
2018-11-21T10:51:08.991Z,1513
2018-11-21T10:52:09.039Z,1513
2018-11-21T10:53:09.051Z,1512
2018-11-21T10:54:09.000Z,1512
2018-11-21T10:55:09.088Z,1512
2018-11-21T10:56:09.208Z,1512
2018-11-21T10:57:09.016Z,1512
2018-11-21T10:58:09.023Z,1512
2018-11-21T10:59:09.011Z,1512
2018-11-21T11:00:09.087Z,1512
2018-11-21T11:01:09.328Z,1512
2018-11-21T11:02:09.000Z,1513
2018-11-21T11:03:09.001Z,1513
2018-11-21T11:04:09.000Z,1513
2018-11-21T11:05:09.056Z,1513
2018-11-21T11:06:09.019Z,1514
2018-11-21T11:07:09.003Z,1514
2018-11-21T11:08:09.143Z,1514
2018-11-21T11:09:09.055Z,1514
2018-11-21T11:10:08.990Z,1514
2018-11-21T11:11:09.004Z,1514
2018-11-21T11:12:08.993Z,1514
2018-11-21T11:13:09.072Z,1514
2018-11-21T11:14:09.003Z,1514
2018-11-21T11:15:08.988Z,1514
2018-11-21T11:16:09.090Z,1514
2018-11-21T11:17:09.021Z,1514
2018-11-21T11:18:09.045Z,1514
2018-11-21T11:19:09.035Z,1514
2018-11-21T11:20:09.012Z,1514
2018-11-21T11:21:09.303Z,1514
2018-11-21T11:22:09.612Z,1514
2018-11-21T11:23:09.446Z,1514
2018-11-21T11:24:09.492Z,1514
2018-11-21T11:25:09.538Z,1514
2018-11-21T11:26:09.224Z,1514
2018-11-21T11:27:09.836Z,1514
2018-11-21T11:28:08.911Z,1514
2018-11-21T11:29:08.914Z,1514
2018-11-21T11:30:09.223Z,1513
2018-11-21T11:31:08.977Z,1513
2018-11-21T11:32:08.920Z,1513
2018-11-21T11:33:08.923Z,1513
2018-11-21T11:34:08.924Z,1513
2018-11-21T11:35:09.024Z,1513
2018-11-21T11:36:09.256Z,1513
2018-11-21T11:37:08.983Z,1513
2018-11-21T11:38:08.967Z,1513
2018-11-21T11:39:08.968Z,1513
2018-11-21T11:40:08.921Z,1513
2018-11-21T11:41:08.982Z,1513
2018-11-21T11:42:09.250Z,1513
2018-11-21T11:43:09.065Z,1513
2018-11-21T11:44:08.991Z,1513
2018-11-21T11:45:08.993Z,1513
2018-11-21T11:46:08.999Z,1513
2018-11-21T11:47:09.062Z,1514
2018-11-21T11:48:08.991Z,1514
2018-11-21T11:49:08.998Z,1514
2018-11-21T11:50:08.986Z,1514
2018-11-21T11:51:08.985Z,1514
2018-11-21T11:52:09.048Z,1514
2018-11-21T11:53:09.435Z,1514
2018-11-21T11:54:09.014Z,1514
2018-11-21T11:55:09.004Z,1514
2018-11-21T11:56:09.006Z,1514
2018-11-21T11:57:08.989Z,1514
2018-11-21T11:58:09.052Z,1513
2018-11-21T11:59:09.286Z,1513
2018-11-21T12:00:08.984Z,1513
2018-11-21T12:01:09.073Z,1513
2018-11-21T12:02:13.129Z,1513
2018-11-21T12:03:09.065Z,1513
2018-11-21T12:04:09.014Z,1512
2018-11-21T12:05:08.999Z,1512
2018-11-21T12:06:08.992Z,1512
2018-11-21T12:07:08.989Z,1512
2018-11-21T12:08:09.067Z,1512
2018-11-21T12:10:09.004Z,1512
2018-11-21T12:11:09.020Z,1512
2018-11-21T12:14:09.329Z,1512
2018-11-21T12:15:08.993Z,1512
2018-11-21T12:16:09.000Z,1512
2018-11-21T12:17:09.011Z,1512
2018-11-21T12:18:09.245Z,1512
2018-11-21T12:19:09.094Z,1512
2018-11-21T12:20:09.280Z,1512
2018-11-21T12:21:09.001Z,1512
2018-11-21T12:22:09.000Z,1512
2018-11-21T12:23:09.023Z,1513
2018-11-21T12:24:09.116Z,1513
2018-11-21T12:25:09.022Z,1513
2018-11-21T12:26:10.618Z,1513
2018-11-21T12:27:09.011Z,1513
2018-11-21T12:28:09.149Z,1513
2018-11-21T12:29:09.010Z,1513
2018-11-21T12:30:09.004Z,1513
2018-11-21T12:31:09.036Z,1513
2018-11-21T12:32:09.293Z,1513
2018-11-21T12:33:09.085Z,1513
2018-11-21T12:34:09.016Z,1513
2018-11-21T12:35:08.970Z,1513
2018-11-21T12:36:09.014Z,1513
2018-11-21T12:37:09.024Z,1513
2018-11-21T12:38:10.558Z,1513
2018-11-21T12:39:08.974Z,1513
2018-11-21T12:40:09.004Z,1514
2018-11-21T12:41:09.000Z,1514
2018-11-21T12:42:08.989Z,1514
2018-11-21T12:43:13.217Z,1514
2018-11-21T12:44:09.053Z,1515
2018-11-21T12:45:08.980Z,1515
2018-11-21T12:46:08.975Z,1515
2018-11-21T12:47:08.993Z,1515
2018-11-21T12:48:09.023Z,1515
2018-11-21T12:49:09.124Z,1515
2018-11-21T12:50:08.999Z,1515
2018-11-21T12:51:09.036Z,1515
2018-11-21T12:52:09.117Z,1515
2018-11-21T12:53:08.999Z,1515
2018-11-21T12:54:09.118Z,1515
2018-11-21T12:55:09.028Z,1514
2018-11-21T12:56:09.013Z,1514
2018-11-21T12:57:09.002Z,1514
2018-11-21T12:58:09.011Z,1514
2018-11-21T12:59:09.133Z,1514
2018-11-21T13:00:09.026Z,1514
2018-11-21T13:01:09.039Z,1514
2018-11-21T13:02:08.998Z,1514
2018-11-21T13:03:09.007Z,1514
2018-11-21T13:04:09.214Z,1514
2018-11-21T13:05:09.046Z,1514
2018-11-21T13:06:09.068Z,1514
2018-11-21T13:07:09.016Z,1514
2018-11-21T13:08:09.055Z,1514
2018-11-21T13:09:09.104Z,1514
2018-11-21T13:10:08.995Z,1514
2018-11-21T13:11:08.994Z,1514
2018-11-21T13:12:09.011Z,1514
2018-11-21T13:13:09.043Z,1514
2018-11-21T13:14:09.105Z,1514
2018-11-21T13:15:09.342Z,1515
2018-11-21T13:16:09.013Z,1515
2018-11-21T13:17:09.011Z,1515
2018-11-21T13:18:08.993Z,1515
2018-11-21T13:19:09.004Z,1515
2018-11-21T13:20:09.854Z,1515
2018-11-21T13:21:09.095Z,1515
2018-11-21T13:22:09.012Z,1515
2018-11-21T13:23:09.029Z,1515
2018-11-21T13:24:09.064Z,1515
2018-11-21T13:25:09.076Z,1515
2018-11-21T13:26:09.031Z,1515
2018-11-21T13:27:09.030Z,1515
2018-11-21T13:28:09.065Z,1515
2018-11-21T13:29:10.075Z,1514
2018-11-21T13:30:09.082Z,1513
2018-11-21T13:31:09.009Z,1513
2018-11-21T13:32:09.018Z,1513
2018-11-21T13:33:09.075Z,1513
2018-11-21T13:34:08.996Z,1513
2018-11-21T13:35:09.003Z,1513
2018-11-21T13:36:09.002Z,1513
2018-11-21T13:37:09.013Z,1513
2018-11-21T13:38:09.122Z,1513
2018-11-21T13:39:10.051Z,1513
2018-11-21T13:40:09.288Z,1513
2018-11-21T13:41:09.118Z,1513
2018-11-21T13:42:09.038Z,1513
2018-11-21T13:43:09.141Z,1513
2018-11-21T13:44:09.009Z,1513